Time;durP1;ratioP1;P1;durP2;ratioP2;P2;SDS_P1;SDS_P2;PMS_P1;PMS_P2;Temp;Humidity;BMP_temperature;BMP_pressure;BME280_temperature;BME280_humidity;BME280_pressure;Samples;Min_cycle;Max_cycle;Signal;HPM_P1;HPM_P2
2022/06/06 00:02:09;;;;;;;6.10;5.60;;;;;;;-143.84;79.63;44988.13;5030710;28;20500;-72
2022/06/06 00:04:37;;;;;;;9.30;7.00;;;;;;;-143.84;79.54;44997.66;5030912;28;20509;-72
2022/06/06 00:07:05;;;;;;;7.27;6.57;;;;;;;-143.84;80.05;44999.56;5030558;28;21081;-72
2022/06/06 00:09:33;;;;;;;9.20;6.30;;;;;;;-143.84;80.35;45009.09;5030618;28;20450;-72
2022/06/06 00:12:02;;;;;;;7.13;6.37;;;;;;;-143.84;80.30;44988.13;5030424;28;20442;-72
2022/06/06 00:14:31;;;;;;;7.27;6.30;;;;;;;-143.84;80.54;45003.38;5030387;28;21042;-72
2022/06/06 00:16:58;;;;;;;13.60;7.17;;;;;;;-143.84;80.89;45022.41;5030542;28;20504;-72
2022/06/06 00:19:27;;;;;;;9.07;6.00;;;;;;;-143.84;81.08;45007.19;5030611;28;20434;-72
2022/06/06 00:21:55;;;;;;;9.30;6.37;;;;;;;-143.84;80.97;45005.28;5030474;28;20439;-72
2022/06/06 00:24:22;;;;;;;8.10;6.50;;;;;;;-143.84;81.50;45012.88;5030053;28;20458;-72
2022/06/06 00:26:49;;;;;;;7.80;6.90;;;;;;;-143.84;81.43;44995.75;5030183;28;20470;-72
2022/06/06 00:29:18;;;;;;;7.23;6.63;;;;;;;-143.84;81.74;45026.22;5030206;28;20439;-72
2022/06/06 00:34:51;;;;;;;6.20;5.70;;;;;;;-143.84;82.15;45005.28;5030249;28;20433;-72
2022/06/06 00:37:23;;;;;;;9.90;6.43;;;;;;;-143.84;82.46;45009.09;5030460;28;20454;-72
2022/06/06 00:39:50;;;;;;;7.17;6.10;;;;;;;-143.84;82.72;45009.09;5030042;28;20437;-72
2022/06/06 00:42:22;;;;;;;9.73;6.80;;;;;;;-143.84;82.92;45007.19;5030104;28;20443;-72
2022/06/06 00:44:49;;;;;;;7.67;6.97;;;;;;;-143.84;82.88;45031.94;5030064;28;20466;-72
2022/06/06 00:47:25;;;;;;;8.73;6.10;;;;;;;-143.84;83.06;45001.47;5029850;28;20478;-72
2022/06/06 00:49:59;;;;;;;12.90;7.60;;;;;;;-143.84;83.02;45010.97;5029727;28;20454;-72
2022/06/06 00:52:32;;;;;;;6.90;6.30;;;;;;;-143.84;83.32;45009.09;5029915;28;20454;-72
2022/06/06 00:55:02;;;;;;;6.93;6.23;;;;;;;-143.84;83.70;45009.09;5030001;28;20446;-72
2022/06/06 00:57:33;;;;;;;9.13;6.17;;;;;;;-143.84;83.74;44974.81;5029707;28;20478;-72
2022/06/06 01:00:04;;;;;;;14.63;7.10;;;;;;;-143.84;83.96;45020.50;5029739;28;20528;-72
2022/06/06 01:02:31;;;;;;;8.20;6.20;;;;;;;-143.84;84.20;45022.41;5029717;28;20537;-72
2022/06/06 01:05:01;;;;;;;12.80;6.60;;;;;;;-143.84;84.33;45005.28;5029800;28;20520;-72
2022/06/06 01:07:28;;;;;;;10.60;7.33;;;;;;;-143.84;84.47;45001.47;5029828;28;20485;-72
2022/06/06 01:09:55;;;;;;;7.37;6.00;;;;;;;-143.84;84.34;45020.50;5029567;28;20485;-72
2022/06/06 01:12:24;;;;;;;7.53;6.40;;;;;;;-143.84;84.46;45026.22;5029475;28;20454;-72
2022/06/06 01:14:56;;;;;;;6.47;5.93;;;;;;;-143.84;84.86;45016.69;5029403;28;21010;-72
2022/06/06 01:17:35;;;;;;;9.97;6.20;;;;;;;-143.84;85.00;45007.19;5029488;28;20439;-72
2022/06/06 01:20:21;;;;;;;8.03;6.43;;;;;;;-143.84;84.78;45005.28;5029446;28;20438;-72
2022/06/06 01:23:33;;;;;;;6.83;5.47;;;;;;;-143.84;84.94;44988.13;5029639;28;20802;-72
2022/06/06 01:26:26;;;;;;;14.40;6.60;;;;;;;-143.84;85.11;45007.19;5044777;28;20567;-73
2022/06/06 01:29:01;;;;;;;7.03;6.33;;;;;;;-143.84;85.18;45062.41;5049157;28;20461;-73
2022/06/06 01:31:36;;;;;;;9.03;6.67;;;;;;;-143.84;85.13;45005.28;5049248;28;21252;-74
2022/06/06 01:34:05;;;;;;;6.60;5.87;;;;;;;-143.84;85.29;45016.69;5049389;28;20434;-74
2022/06/06 01:36:34;;;;;;;8.63;5.40;;;;;;;-143.84;85.68;45014.78;5049071;28;20427;-74
2022/06/06 01:39:05;;;;;;;7.30;5.50;;;;;;;-143.84;85.51;44980.53;5049027;28;20433;-74
2022/06/06 01:41:41;;;;;;;7.20;5.53;;;;;;;-143.84;85.50;45031.94;5049168;28;20449;-74
2022/06/06 01:44:16;;;;;;;7.10;6.40;;;;;;;-143.84;85.91;45012.88;5049013;28;20534;-73
2022/06/06 01:46:43;;;;;;;6.17;5.57;;;;;;;-143.84;86.27;45005.28;5048844;28;20503;-73
2022/06/06 01:49:14;;;;;;;6.37;5.77;;;;;;;-143.84;86.38;45010.97;5048806;28;20438;-73
2022/06/06 01:51:42;;;;;;;6.40;5.70;;;;;;;-143.84;86.43;44984.31;5048722;28;20441;-73
2022/06/06 01:54:10;;;;;;;20.67;6.53;;;;;;;-143.84;86.69;45028.13;5049112;28;20548;-73
2022/06/06 01:56:40;;;;;;;8.70;5.40;;;;;;;-143.84;86.61;45001.47;5049234;28;20526;-73
2022/06/06 01:59:07;;;;;;;6.50;5.90;;;;;;;-143.84;86.85;45030.03;5048409;28;20438;-73
2022/06/06 02:01:35;;;;;;;6.63;5.93;;;;;;;-143.84;86.92;45022.41;5049127;28;20430;-73
2022/06/06 02:04:02;;;;;;;8.47;6.17;;;;;;;-143.84;87.59;45009.09;5048562;28;20437;-73
2022/06/06 02:06:30;;;;;;;13.80;6.30;;;;;;;-143.84;87.73;45016.69;5048807;28;20437;-73
2022/06/06 02:08:57;;;;;;;7.50;6.80;;;;;;;-143.84;87.77;45010.97;5048795;28;20938;-74
2022/06/06 02:11:24;;;;;;;6.40;5.90;;;;;;;-143.84;88.10;45014.78;5048880;28;20442;-74
2022/06/06 02:13:51;;;;;;;7.93;5.23;;;;;;;-143.84;88.32;45009.09;5048905;28;20500;-74
2022/06/06 02:16:18;;;;;;;7.80;6.10;;;;;;;-143.84;88.56;45014.78;5048807;28;20434;-74
2022/06/06 02:18:47;;;;;;;9.73;6.10;;;;;;;-143.84;88.73;45010.97;5048631;28;20901;-74
2022/06/06 02:21:16;;;;;;;7.13;6.57;;;;;;;-143.84;88.93;45022.41;5048460;28;20465;-74
2022/06/06 02:23:44;;;;;;;7.67;6.90;;;;;;;-143.84;89.27;45009.09;5048595;28;20461;-74
2022/06/06 02:26:11;;;;;;;7.40;6.50;;;;;;;-143.84;89.29;45024.31;5048316;28;20481;-74
2022/06/06 02:28:40;;;;;;;7.67;6.97;;;;;;;-143.84;89.59;45035.75;5048398;28;20511;-74
2022/06/06 02:31:08;;;;;;;8.73;7.83;;;;;;;-143.84;90.09;45010.97;5048509;28;20935;-74
2022/06/06 02:33:35;;;;;;;8.63;7.80;;;;;;;-143.84;90.52;45001.47;5048394;28;20441;-74
2022/06/06 02:36:05;;;;;;;8.60;7.90;;;;;;;-143.84;90.94;44988.13;5048368;28;20491;-73
2022/06/06 02:38:32;;;;;;;8.80;8.00;;;;;;;-143.84;91.43;45005.28;5048480;28;20442;-73
2022/06/06 02:41:07;;;;;;;15.97;8.13;;;;;;;-143.84;91.50;45009.09;5048481;28;20958;-73
2022/06/06 02:43:36;;;;;;;11.57;7.67;;;;;;;-143.84;91.39;44990.03;5048231;28;20433;-73
2022/06/06 02:46:03;;;;;;;9.27;8.00;;;;;;;-143.84;91.41;45024.31;5048348;28;20449;-73
2022/06/06 02:48:31;;;;;;;8.47;7.67;;;;;;;-143.84;91.51;45030.03;5048100;28;20543;-73
2022/06/06 02:50:59;;;;;;;9.67;6.73;;;;;;;-143.84;91.47;44988.13;5047983;28;20446;-74
2022/06/06 02:53:27;;;;;;;6.80;6.20;;;;;;;-143.84;91.33;45033.84;5048072;28;20438;-74
2022/06/06 02:55:55;;;;;;;10.33;6.57;;;;;;;-143.84;90.70;45020.50;5048266;28;20446;-74
2022/06/06 02:58:23;;;;;;;7.43;5.00;;;;;;;-143.84;90.36;45012.88;5048373;28;20454;-73
2022/06/06 03:00:58;;;;;;;12.43;4.77;;;;;;;-143.84;89.90;45024.31;5048117;28;20434;-73
2022/06/06 03:03:25;;;;;;;8.60;5.53;;;;;;;-143.84;90.36;45005.28;5048442;28;20490;-73
2022/06/06 03:06:02;;;;;;;10.37;4.63;;;;;;;-143.84;90.21;45010.97;5047537;28;20438;-74
2022/06/06 03:08:55;;;;;;;4.47;4.13;;;;;;;-143.84;89.66;44999.56;5031663;28;20900;-72
2022/06/06 03:11:41;;;;;;;3.77;2.63;;;;;;;-143.84;87.96;44986.22;5038346;28;20443;-71
2022/06/06 03:14:28;;;;;;;9.90;2.50;;;;;;;-143.84;87.49;45018.59;5038316;28;20435;-71
2022/06/06 03:23:12;;;;;;;4.90;2.73;;;;;;;-143.84;87.29;45014.78;5028991;28;20434;-71
2022/06/06 03:25:47;;;;;;;6.33;2.77;;;;;;;-143.84;87.02;45012.88;5024261;28;20477;-72
2022/06/06 03:28:28;;;;;;;2.57;1.87;;;;;;;-143.84;87.87;45022.41;5030890;28;20513;-73
2022/06/06 03:31:05;;;;;;;7.97;1.90;;;;;;;-143.84;88.03;45010.97;5031290;28;20492;-75
2022/06/06 03:33:42;;;;;;;10.00;2.20;;;;;;;-143.84;88.01;45028.13;5030669;28;20439;-71
2022/06/06 03:36:18;;;;;;;4.80;2.37;;;;;;;-143.84;88.83;45003.38;5030072;28;20431;-71
2022/06/06 03:38:52;;;;;;;6.60;3.30;;;;;;;-143.84;88.79;45022.41;5031312;28;20948;-71
2022/06/06 03:41:30;;;;;;;6.70;2.70;;;;;;;-143.84;89.29;45020.50;5025603;28;20432;-71
2022/06/06 03:44:08;;;;;;;4.87;2.00;;;;;;;-143.84;89.82;45016.69;5019633;28;20432;-73
2022/06/06 03:46:42;;;;;;;7.20;2.20;;;;;;;-143.84;89.56;45024.31;5021825;28;20991;-73
2022/06/06 03:49:18;;;;;;;6.90;2.30;;;;;;;-143.84;90.02;45043.34;5011362;28;20479;-73
2022/06/06 03:52:00;;;;;;;3.07;2.40;;;;;;;-143.84;89.98;45010.97;5016938;28;20493;-72
2022/06/06 03:54:41;;;;;;;5.73;2.17;;;;;;;-143.84;90.09;45007.19;5013659;28;20454;-72
2022/06/06 03:57:14;;;;;;;10.43;2.33;;;;;;;-143.84;90.08;45041.44;5019517;28;20432;-73
2022/06/06 03:59:43;;;;;;;3.07;2.77;;;;;;;-143.84;89.42;45043.34;5023678;28;21000;-73
2022/06/06 04:02:16;;;;;;;12.43;2.87;;;;;;;-143.84;89.55;45018.59;5018080;28;20506;-71
2022/06/06 04:04:45;;;;;;;2.97;2.50;;;;;;;-143.84;89.33;45012.88;5010035;28;20502;-71
2022/06/06 04:07:13;;;;;;;4.93;1.90;;;;;;;-143.84;89.49;45024.31;5009291;28;20510;-71
2022/06/06 04:09:40;;;;;;;11.17;2.90;;;;;;;-143.84;90.05;45012.88;5010436;28;20506;-71
2022/06/06 04:12:26;;;;;;;6.53;1.83;;;;;;;-143.84;90.18;45045.25;5009773;28;20455;-71
2022/06/06 04:15:01;;;;;;;4.27;1.60;;;;;;;-143.84;90.44;45012.88;5010708;28;20447;-71
2022/06/06 04:17:37;;;;;;;6.77;1.70;;;;;;;-143.84;90.35;45047.16;5009629;28;20443;-70
2022/06/06 04:20:17;;;;;;;5.93;1.97;;;;;;;-143.84;91.26;45035.75;5010917;28;20463;-71
2022/06/06 04:23:00;;;;;;;12.33;2.47;;;;;;;-143.84;91.80;45037.66;5010228;28;20504;-71
2022/06/06 04:25:34;;;;;;;5.70;2.10;;;;;;;-143.84;92.10;45030.03;5020690;28;20486;-71
2022/06/06 04:28:11;;;;;;;9.10;2.30;;;;;;;-143.84;92.77;45020.50;5030240;28;20616;-71
2022/06/06 04:30:43;;;;;;;5.80;1.90;;;;;;;-143.84;93.38;45016.69;5030060;28;20983;-71
2022/06/06 04:33:20;;;;;;;10.73;1.93;;;;;;;-143.84;93.51;45016.69;5030257;28;20859;-71
2022/06/06 04:35:57;;;;;;;7.53;2.43;;;;;;;-143.84;93.80;45035.75;5029933;28;20460;-71
2022/06/06 04:38:31;;;;;;;4.10;1.60;;;;;;;-143.84;94.00;45030.03;5029851;28;20434;-71
2022/06/06 04:41:06;;;;;;;2.80;2.10;;;;;;;-143.84;94.33;45010.97;5029885;28;20442;-71
2022/06/06 04:43:41;;;;;;;4.20;1.37;;;;;;;-143.84;94.53;45014.78;5029929;28;20458;-71
2022/06/06 04:46:16;;;;;;;4.70;1.80;;;;;;;-143.84;94.47;45024.31;5029975;28;20519;-71
2022/06/06 04:48:44;;;;;;;5.03;1.83;;;;;;;-143.84;94.74;44993.84;5029719;28;20859;-71
2022/06/06 04:51:14;;;;;;;4.83;1.63;;;;;;;-143.84;94.59;45049.06;5029760;28;20438;-71
2022/06/06 04:53:44;;;;;;;8.80;2.23;;;;;;;-143.84;94.99;45010.97;5029710;28;20497;-70
2022/06/06 04:56:14;;;;;;;5.40;1.83;;;;;;;-143.84;94.88;45009.09;5029740;28;20449;-71
2022/06/06 04:58:47;;;;;;;5.23;2.40;;;;;;;-143.84;94.97;45005.28;5029549;28;20443;-71
2022/06/06 05:01:15;;;;;;;4.83;2.37;;;;;;;-143.84;94.82;45014.78;5029787;28;20450;-71
2022/06/06 05:03:42;;;;;;;6.50;2.30;;;;;;;-143.84;94.18;45037.66;5029456;28;20508;-71
2022/06/06 05:06:23;;;;;;;8.43;2.20;;;;;;;-143.84;93.98;45045.25;5029430;28;20449;-71
2022/06/06 05:09:03;;;;;;;6.10;4.13;;;;;;;-143.84;93.06;45039.53;5029163;28;20478;-71
2022/06/06 05:11:43;;;;;;;5.33;1.90;;;;;;;-143.84;93.54;45033.84;5029577;28;20517;-71
2022/06/06 05:14:24;;;;;;;3.93;1.60;;;;;;;-143.84;92.25;45039.53;5029283;28;20450;-71
2022/06/06 05:17:19;;;;;;;3.23;1.87;;;;;;;-143.84;92.49;45039.53;5029518;28;21225;-71
2022/06/06 05:20:00;;;;;;;5.20;2.33;;;;;;;-143.84;93.23;45018.59;5029230;28;20458;-71
2022/06/06 05:22:45;;;;;;;6.10;1.60;;;;;;;-143.84;93.20;45024.31;5029317;28;20468;-71
2022/06/06 05:25:29;;;;;;;8.30;2.13;;;;;;;-143.84;93.64;45022.41;5028901;28;20481;-71
2022/06/06 05:28:17;;;;;;;4.70;1.80;;;;;;;-143.84;94.21;45014.78;5029130;28;20434;-71
2022/06/06 05:30:54;;;;;;;4.80;1.53;;;;;;;-143.84;94.28;45037.66;5029018;28;20569;-71
2022/06/06 05:33:28;;;;;;;8.10;2.43;;;;;;;-143.84;93.95;45030.03;5028430;28;20496;-71
2022/06/06 05:36:17;;;;;;;4.40;2.03;;;;;;;-143.84;94.04;45030.03;5028976;28;20469;-71
2022/06/06 05:39:26;;;;;;;3.17;1.57;;;;;;;-143.84;93.72;45033.84;5028806;28;20430;-71
2022/06/06 05:42:10;;;;;;;1.53;1.43;;;;;;;-143.84;93.05;45024.31;4967442;28;20445;-71
2022/06/06 05:44:54;;;;;;;10.73;1.80;;;;;;;-143.84;93.14;45010.97;4967559;28;20449;-71
2022/06/06 05:47:33;;;;;;;7.27;1.60;;;;;;;-143.84;93.18;45043.34;5009118;28;20438;-71
2022/06/06 05:50:13;;;;;;;3.17;1.53;;;;;;;-143.84;92.64;45005.28;5028772;28;21141;-71
2022/06/06 05:53:03;;;;;;;3.80;1.67;;;;;;;-143.84;92.68;45030.03;5028526;28;20504;-71
2022/06/06 05:56:09;;;;;;;5.23;1.90;;;;;;;-143.84;92.26;45020.50;5028552;28;20445;-71
2022/06/06 05:59:01;;;;;;;9.80;1.57;;;;;;;-143.84;92.91;45026.22;5028630;28;20442;-71
2022/06/06 06:01:42;;;;;;;3.00;1.53;;;;;;;-143.84;92.50;45016.69;5028730;28;20439;-71
2022/06/06 06:04:48;;;;;;;5.90;2.33;;;;;;;-143.84;92.84;45007.19;5028952;28;20462;-71
2022/06/06 06:07:23;;;;;;;2.40;1.33;;;;;;;-143.84;92.22;45007.19;5022281;28;20454;-71
2022/06/06 06:10:04;;;;;;;6.10;1.47;;;;;;;-143.84;91.95;44997.66;5028579;28;20847;-71
2022/06/06 06:12:48;;;;;;;2.07;1.23;;;;;;;-143.84;90.83;45010.97;5028843;28;20520;-71
2022/06/06 06:15:27;;;;;;;6.50;1.20;;;;;;;-143.84;90.24;45018.59;5028875;28;20450;-71
2022/06/06 06:17:56;;;;;;;11.77;1.73;;;;;;;-143.84;90.09;45047.16;5028524;28;20503;-71
2022/06/06 06:20:30;;;;;;;2.60;1.63;;;;;;;-143.84;90.18;45024.31;5028416;28;20447;-71
2022/06/06 06:23:02;;;;;;;2.40;1.40;;;;;;;-143.84;90.42;45047.16;5028883;28;20644;-71
2022/06/06 06:25:33;;;;;;;2.60;1.80;;;;;;;-143.84;90.13;45016.69;5028562;28;20901;-71
2022/06/06 06:28:06;;;;;;;3.10;1.73;;;;;;;-143.84;89.49;45018.59;5028411;28;20446;-71
2022/06/06 06:30:47;;;;;;;1.80;1.67;;;;;;;-143.84;88.73;45003.38;5028449;28;20933;-71
2022/06/06 06:33:35;;;;;;;6.90;1.70;;;;;;;-143.84;88.98;45026.22;5028480;28;20426;-71
2022/06/06 06:36:13;;;;;;;1.67;1.17;;;;;;;-143.84;87.33;45052.88;5025951;28;20449;-71
2022/06/06 06:38:59;;;;;;;3.47;1.63;;;;;;;-143.84;87.08;45039.53;5028678;28;20458;-71
2022/06/06 06:41:39;;;;;;;4.50;1.50;;;;;;;-143.84;87.59;45037.66;5028501;28;20816;-71
2022/06/06 06:44:09;;;;;;;2.50;1.60;;;;;;;-143.84;88.26;45018.59;5028353;28;20446;-71
2022/06/06 06:46:41;;;;;;;2.03;1.40;;;;;;;-143.84;87.14;45031.94;5032096;28;20446;-71
2022/06/06 06:49:37;;;;;;;4.50;2.10;;;;;;;-143.84;86.00;45039.53;5032108;28;20528;-71
2022/06/06 06:52:20;;;;;;;3.97;1.73;;;;;;;-143.84;85.33;45041.44;5031900;28;20451;-71
2022/06/06 06:55:03;;;;;;;4.67;1.50;;;;;;;-143.84;84.97;45039.53;5032474;28;20530;-71
2022/06/06 06:57:48;;;;;;;5.80;1.40;;;;;;;-143.84;81.51;45022.41;5032100;28;20496;-71
2022/06/06 07:00:19;;;;;;;3.10;1.07;;;;;;;-143.84;80.33;45026.22;5031922;28;20450;-71
2022/06/06 07:09:03;;;;;;;1.57;1.10;;;;;;;-143.84;78.94;45024.31;5031837;28;20505;-71
2022/06/06 07:11:50;;;;;;;4.20;1.60;;;;;;;-143.84;73.63;45018.59;5031937;28;20455;-71
2022/06/06 07:14:35;;;;;;;2.37;1.90;;;;;;;-143.84;74.89;45007.19;5031625;28;20501;-71
2022/06/06 07:17:04;;;;;;;1.50;1.27;;;;;;;-143.84;70.75;45028.13;5031456;28;20449;-71
2022/06/06 07:19:35;;;;;;;1.70;1.20;;;;;;;-143.84;70.37;45012.88;5031427;28;20454;-71
2022/06/06 07:22:04;;;;;;;3.37;1.30;;;;;;;-143.84;66.39;44993.84;5031800;28;20438;-71
2022/06/06 07:24:33;;;;;;;1.97;1.17;;;;;;;-143.84;66.53;44986.22;5031781;28;20490;-71
2022/06/06 07:27:02;;;;;;;1.30;1.20;;;;;;;-143.84;66.33;44995.75;5032252;28;21012;-71
2022/06/06 07:29:29;;;;;;;5.33;1.40;;;;;;;-143.84;66.76;44984.31;5031906;28;20482;-71
2022/06/06 07:32:16;;;;;;;2.53;1.10;;;;;;;-143.84;64.45;44999.56;5031670;28;20457;-71
2022/06/06 07:35:02;;;;;;;2.10;0.97;;;;;;;-143.84;61.80;45024.31;5031722;28;20940;-71
2022/06/06 07:37:48;;;;;;;1.20;1.10;;;;;;;-143.84;62.91;45003.38;5032132;28;20442;-71
2022/06/06 07:40:28;;;;;;;1.67;1.17;;;;;;;-143.84;62.38;44999.56;5031810;28;20449;-71
2022/06/06 07:43:21;;;;;;;1.10;1.00;;;;;;;-143.84;61.85;45001.47;5031638;28;20450;-71
2022/06/06 07:45:51;;;;;;;1.90;1.40;;;;;;;-143.84;62.28;44988.13;5030536;28;20446;-71
2022/06/06 07:48:36;;;;;;;3.40;1.37;;;;;;;-143.84;64.71;45022.41;5030186;28;20929;-71
2022/06/06 07:51:09;;;;;;;2.37;1.70;;;;;;;-143.84;64.39;44990.03;5030915;28;20812;-71
2022/06/06 07:53:46;;;;;;;1.63;1.20;;;;;;;-143.84;64.10;44990.03;5031099;28;20500;-71
2022/06/06 07:56:23;;;;;;;3.63;1.40;;;;;;;-143.84;66.21;44999.56;5030012;28;20438;-71
2022/06/06 07:58:59;;;;;;;1.30;1.20;;;;;;;-143.84;62.03;44980.53;5031244;28;21346;-71
2022/06/06 08:01:37;;;;;;;3.03;1.50;;;;;;;-143.84;64.07;44988.13;5031421;28;20455;-71
2022/06/06 08:04:14;;;;;;;1.93;1.50;;;;;;;-143.84;62.46;44990.03;5031611;28;20522;-71
2022/06/06 08:06:51;;;;;;;6.73;1.70;;;;;;;-143.84;62.26;44972.91;5031390;28;20446;-71
2022/06/06 08:09:28;;;;;;;2.23;1.43;;;;;;;-143.84;62.99;44988.13;5031055;28;20481;-71
2022/06/06 08:12:33;;;;;;;6.23;1.60;;;;;;;-143.84;62.91;44988.13;5031361;28;20442;-71
2022/06/06 08:15:12;;;;;;;2.03;1.20;;;;;;;-143.84;63.48;44984.31;5014938;28;20443;-71
2022/06/06 08:17:59;;;;;;;3.63;1.90;;;;;;;-143.84;63.11;44978.63;5031048;28;20932;-71
2022/06/06 08:20:36;;;;;;;1.60;1.50;;;;;;;-143.84;63.52;44986.22;5031477;28;20438;-71
2022/06/06 08:23:06;;;;;;;3.00;1.60;;;;;;;-143.84;62.06;44984.31;5030915;28;20447;-71
2022/06/06 08:25:35;;;;;;;3.90;1.90;;;;;;;-143.84;63.22;44990.03;5030346;28;20510;-71
2022/06/06 08:28:04;;;;;;;2.67;1.77;;;;;;;-143.84;63.83;44963.38;5030803;28;20446;-71
2022/06/06 08:30:35;;;;;;;8.40;1.80;;;;;;;-143.84;58.39;44978.63;5030658;28;21394;-71
2022/06/06 08:33:02;;;;;;;3.90;1.77;;;;;;;-143.84;57.50;44965.28;5030991;28;20541;-71
2022/06/06 08:35:41;;;;;;;4.30;1.87;;;;;;;-143.84;55.83;44963.38;5030797;28;20924;-71
2022/06/06 08:38:22;;;;;;;3.77;1.67;;;;;;;-143.84;57.62;44990.03;5030847;28;20457;-71
2022/06/06 08:41:32;;;;;;;2.83;1.77;;;;;;;-143.84;59.03;44963.38;5030454;28;20517;-71
2022/06/06 08:44:07;;;;;;;6.37;2.03;;;;;;;-143.84;56.21;44969.09;5030704;28;20439;-71
2022/06/06 08:47:01;;;;;;;6.30;1.73;;;;;;;-143.84;56.56;44963.38;5030439;28;20472;-71
2022/06/06 08:53:02;;;;;;;3.40;1.80;;;;;;;-143.84;55.50;44950.06;5030737;28;20494;-71
2022/06/06 08:55:49;;;;;;;5.27;2.23;;;;;;;-143.84;53.48;44925.31;5020836;28;20455;-71
2022/06/06 08:58:49;;;;;;;3.87;2.20;;;;;;;-143.84;50.19;44929.09;5030262;28;20933;-71
2022/06/06 09:01:30;;;;;;;1.50;1.40;;;;;;;-143.84;49.25;44940.53;5027813;28;20443;-71
2022/06/06 09:04:30;;;;;;;2.77;2.07;;;;;;;-143.84;51.25;44908.16;5030522;28;20461;-71
2022/06/06 09:07:38;;;;;;;4.10;2.53;;;;;;;-143.84;49.94;44927.19;5012758;28;20458;-71
2022/06/06 09:10:47;;;;;;;4.00;1.67;;;;;;;-143.84;49.71;44963.38;5029751;28;20478;-71
2022/06/06 09:13:44;;;;;;;6.30;1.97;;;;;;;-143.84;47.82;44923.41;4991521;28;20510;-71
2022/06/06 09:16:57;;;;;;;5.33;1.73;;;;;;;-143.84;46.25;44951.97;5030217;28;20528;-71
2022/06/06 09:20:01;;;;;;;3.40;1.53;;;;;;;-143.84;46.89;44934.81;4968547;28;20508;-71
2022/06/06 09:23:01;;;;;;;1.70;1.43;;;;;;;-143.84;48.78;44934.81;5030174;28;20438;-71
2022/06/06 09:25:37;;;;;;;4.13;1.80;;;;;;;-143.84;51.75;44940.53;5029806;28;20540;-71
2022/06/06 09:28:32;;;;;;;2.00;1.80;;;;;;;-143.84;48.12;44953.88;5029847;28;20944;-71
2022/06/06 09:31:40;;;;;;;6.43;2.03;;;;;;;-143.84;49.00;44927.19;5029901;28;21080;-71
2022/06/06 09:34:59;;;;;;;2.40;2.20;;;;;;;-143.84;51.56;44957.66;5029930;28;20443;-71
2022/06/06 09:37:37;;;;;;;3.60;2.07;;;;;;;-143.84;51.85;44995.75;5029806;28;20864;-70
2022/06/06 09:40:23;;;;;;;2.63;1.60;;;;;;;-143.84;50.60;44951.97;5029550;28;20446;-71
2022/06/06 09:43:09;;;;;;;4.57;1.60;;;;;;;-143.84;53.44;44948.16;5029421;28;20500;-70
2022/06/06 09:46:01;;;;;;;2.83;1.77;;;;;;;-143.84;51.44;44972.91;5029494;28;20442;-71
2022/06/06 09:49:09;;;;;;;4.37;1.73;;;;;;;-143.84;51.07;44940.53;5029501;28;20439;-71
2022/06/06 09:52:16;;;;;;;6.03;1.80;;;;;;;-143.84;52.28;44969.09;5014148;28;20450;-71
2022/06/06 10:01:50;;;;;;;3.60;2.37;;;;;;;-143.84;51.08;44972.91;5029174;28;20461;-71
2022/06/06 10:05:09;;;;;;;3.33;1.97;;;;;;;-143.84;49.53;44919.59;5029471;28;20450;-71
2022/06/06 10:08:34;;;;;;;4.87;1.87;;;;;;;-143.84;51.01;44942.44;5029352;28;21262;-70
2022/06/06 10:11:40;;;;;;;2.60;2.00;;;;;;;-143.84;49.51;44898.66;4987601;28;21068;-70
2022/06/06 10:14:38;;;;;;;4.40;2.67;;;;;;;-143.84;49.92;44944.34;5029381;28;20439;-70
2022/06/06 10:17:27;;;;;;;5.50;1.90;;;;;;;-143.84;52.35;44959.56;5026283;28;20493;-70
2022/06/06 10:20:16;;;;;;;7.87;2.13;;;;;;;-143.84;54.06;44976.72;5030907;28;20447;-70
2022/06/06 10:23:02;;;;;;;6.10;2.40;;;;;;;-143.84;56.46;44950.06;5030803;28;20963;-71
2022/06/06 10:26:02;;;;;;;3.73;2.10;;;;;;;-143.84;57.55;44969.09;5033286;28;20478;-71
2022/06/06 10:28:52;;;;;;;4.37;2.20;;;;;;;-143.84;56.37;44967.19;5021334;28;20450;-71
2022/06/06 10:31:33;;;;;;;6.37;2.20;;;;;;;-143.84;55.72;44959.56;5033042;28;20817;-71
2022/06/06 10:34:31;;;;;;;4.23;1.70;;;;;;;-143.84;55.50;44946.25;5033127;28;20516;-71
2022/06/06 10:37:19;;;;;;;3.43;2.03;;;;;;;-143.84;56.03;44953.88;5033053;28;20516;-70
2022/06/06 10:40:07;;;;;;;4.87;2.13;;;;;;;-143.84;59.70;44959.56;5033166;28;20504;-71
2022/06/06 10:43:08;;;;;;;2.57;2.37;;;;;;;-143.84;60.61;44969.09;5032875;28;20449;-70
2022/06/06 10:45:38;;;;;;;10.27;2.70;;;;;;;-143.84;63.04;44963.38;5033007;28;20453;-70
2022/06/06 10:48:29;;;;;;;5.77;3.00;;;;;;;-143.84;66.84;44991.94;5032989;28;21118;-70
2022/06/06 10:51:39;;;;;;;7.33;2.80;;;;;;;-143.84;68.96;44967.19;5032794;28;21042;-71
2022/06/06 10:54:28;;;;;;;5.47;2.93;;;;;;;-143.84;70.40;44986.22;5032930;28;20822;-70
2022/06/06 10:57:22;;;;;;;10.53;2.90;;;;;;;-143.84;72.85;44997.66;5032715;28;20454;-70
2022/06/06 11:00:17;;;;;;;5.00;2.80;;;;;;;-143.84;73.94;44984.31;5014822;28;20446;-71
2022/06/06 11:03:13;;;;;;;9.23;2.77;;;;;;;-143.84;71.84;44978.63;5032563;28;20453;-70
2022/06/06 11:06:22;;;;;;;3.83;2.53;;;;;;;-143.84;70.77;44972.91;5032699;28;20837;-70
2022/06/06 11:09:20;;;;;;;7.50;3.20;;;;;;;-143.84;71.06;44995.75;4990118;28;20447;-71
2022/06/06 11:12:30;;;;;;;5.00;2.80;;;;;;;-143.84;71.05;44955.75;5031373;28;20854;-70
2022/06/06 11:15:02;;;;;;;5.63;2.43;;;;;;;-143.84;71.40;44997.66;5012859;28;20447;-70
2022/06/06 11:18:04;;;;;;;7.47;2.30;;;;;;;-143.84;72.40;44984.31;5032410;28;20439;-70
2022/06/06 11:20:51;;;;;;;6.77;3.30;;;;;;;-143.84;73.98;44972.91;5032287;28;21050;-71
2022/06/06 11:23:21;;;;;;;10.27;3.50;;;;;;;-143.84;75.97;45001.47;5032270;28;20447;-71
2022/06/06 11:26:06;;;;;;;7.97;3.60;;;;;;;-143.84;77.35;45001.47;5032010;28;20474;-71
2022/06/06 11:29:03;;;;;;;7.13;3.80;;;;;;;-143.84;76.56;44999.56;5032394;28;20446;-72
2022/06/06 11:31:53;;;;;;;10.33;4.20;;;;;;;-143.84;78.42;44982.41;5031035;28;20599;-69
2022/06/06 11:34:53;;;;;;;16.30;5.00;;;;;;;-143.84;79.60;44988.13;5034485;28;20504;-71
2022/06/06 11:38:06;;;;;;;14.47;5.23;;;;;;;-143.84;81.09;45016.69;5009238;28;20446;-70
2022/06/06 11:40:55;;;;;;;11.00;6.10;;;;;;;-143.84;81.24;44991.94;5031768;28;20962;-69
2022/06/06 11:44:03;;;;;;;7.03;5.17;;;;;;;-143.84;81.62;44980.53;5031693;28;20442;-70
2022/06/06 11:47:17;;;;;;;10.77;4.80;;;;;;;-143.84;81.16;44986.22;5031577;28;20445;-71
2022/06/06 11:50:26;;;;;;;13.53;5.27;;;;;;;-143.84;81.25;45020.50;5031369;28;20450;-70
2022/06/06 11:53:25;;;;;;;16.60;5.73;;;;;;;-143.84;82.42;45007.19;5031174;28;20442;-69
2022/06/06 11:56:05;;;;;;;7.10;4.97;;;;;;;-143.84;82.55;45024.31;5022158;28;21039;-69
2022/06/06 11:59:17;;;;;;;6.63;3.80;;;;;;;-143.84;83.42;44997.66;5031460;28;20450;-69
2022/06/06 12:02:16;;;;;;;12.03;4.90;;;;;;;-143.84;82.38;44980.53;5031482;28;20454;-70
2022/06/06 12:05:25;;;;;;;7.67;4.30;;;;;;;-143.84;80.43;44997.66;5031188;28;20497;-69
2022/06/06 12:08:28;;;;;;;13.60;5.00;;;;;;;-143.84;80.38;45016.69;5007327;28;20454;-70
2022/06/06 12:11:32;;;;;;;10.43;4.37;;;;;;;-143.84;80.70;45007.19;5029844;28;20482;-70
2022/06/06 12:14:20;;;;;;;5.37;3.57;;;;;;;-143.84;80.51;44997.66;5030230;28;20500;-70
2022/06/06 12:17:03;;;;;;;10.37;3.97;;;;;;;-143.84;80.33;45014.78;5030847;28;20455;-70
2022/06/06 12:20:15;;;;;;;6.83;3.83;;;;;;;-143.84;79.75;44988.13;5030540;28;20435;-70
2022/06/06 12:23:00;;;;;;;9.67;4.80;;;;;;;-143.84;80.19;45012.88;5011219;28;20453;-70
2022/06/06 12:25:48;;;;;;;7.40;4.23;;;;;;;-143.84;82.24;45024.31;5030746;28;20482;-70
2022/06/06 12:28:47;;;;;;;5.93;4.33;;;;;;;-143.84;78.39;45035.75;5030910;28;20945;-70
2022/06/06 12:31:36;;;;;;;10.70;4.90;;;;;;;-143.84;78.82;45018.59;5016012;28;20490;-70
2022/06/06 12:34:12;;;;;;;10.47;5.80;;;;;;;-143.84;80.87;45001.47;5030985;28;20438;-70
2022/06/06 12:36:48;;;;;;;13.03;4.97;;;;;;;-143.84;80.23;44995.75;5030711;28;21005;-70
2022/06/06 12:39:26;;;;;;;7.03;5.90;;;;;;;-143.84;79.48;45001.47;5016206;28;20462;-69
2022/06/06 12:42:05;;;;;;;8.67;6.00;;;;;;;-143.84;79.63;45014.78;5010765;28;20455;-69
2022/06/06 12:45:16;;;;;;;8.10;5.07;;;;;;;-143.84;79.23;45018.59;5010614;28;20435;-69
2022/06/06 12:48:02;;;;;;;6.30;4.43;;;;;;;-143.84;76.38;44990.03;4948683;28;20537;-69